Time;durP1;ratioP1;P1;durP2;ratioP2;P2;SDS_P1;SDS_P2;PMS_P1;PMS_P2;Temp;Humidity;BMP_temperature;BMP_pressure;BME280_temperature;BME280_humidity;BME280_pressure;Samples;Min_cycle;Max_cycle;Signal;HPM_P1;HPM_P2
2021/04/13 00:02:18;;;;;;;12.98;11.25;;;;;;;3.77;88.84;96316.09;5028803;28;20026;-65
2021/04/13 00:04:47;;;;;;;12.82;9.77;;;;;;;3.68;88.81;96304.31;5031054;28;20449;-64
2021/04/13 00:07:13;;;;;;;12.20;11.02;;;;;;;3.75;88.87;96318.16;5028729;28;20042;-65
2021/04/13 00:09:39;;;;;;;11.25;9.88;;;;;;;3.17;88.39;96237.47;5028189;28;20049;-63
2021/04/13 00:12:09;;;;;;;14.63;10.18;;;;;;;3.54;88.47;96295.88;5028765;28;20045;-65
2021/04/13 00:14:39;;;;;;;12.75;11.45;;;;;;;3.63;88.78;96305.84;5029045;28;20042;-64
2021/04/13 00:17:18;;;;;;;13.05;10.77;;;;;;;3.70;88.53;96315.44;5027308;28;20029;-64
2021/04/13 00:19:43;;;;;;;12.70;10.68;;;;;;;3.64;88.55;96315.31;5029451;28;20029;-63
2021/04/13 00:22:09;;;;;;;12.10;11.00;;;;;;;3.44;88.56;96280.69;5028541;28;20455;-64
2021/04/13 00:24:36;;;;;;;11.85;10.65;;;;;;;3.53;88.89;96294.28;5028446;28;20467;-64
2021/04/13 00:27:01;;;;;;;13.60;10.00;;;;;;;3.41;88.67;96270.63;5027945;28;20049;-63
2021/04/13 00:29:29;;;;;;;12.30;11.15;;;;;;;3.65;88.58;96308.22;5027993;28;20053;-64
2021/04/13 00:31:58;;;;;;;12.50;10.50;;;;;;;3.16;88.44;96225.38;5030299;28;20116;-64
2021/04/13 00:34:29;;;;;;;11.98;9.57;;;;;;;3.79;88.47;96327.22;5028126;28;20044;-64
2021/04/13 00:37:20;;;;;;;10.15;9.15;;;;;;;3.76;88.21;96327.66;5028503;28;20034;-65
2021/04/13 00:39:47;;;;;;;10.70;9.80;;;;;;;3.78;88.37;96318.47;5028286;28;20523;-65
2021/04/13 00:42:15;;;;;;;13.00;10.20;;;;;;;3.47;88.81;96282.84;5028229;28;20567;-64
2021/04/13 00:44:48;;;;;;;11.35;10.15;;;;;;;3.65;88.76;96287.97;5025717;28;20034;-64
2021/04/13 00:47:24;;;;;;;13.93;10.10;;;;;;;3.21;88.80;96215.75;5026893;28;20041;-65
2021/04/13 00:49:55;;;;;;;14.60;10.68;;;;;;;3.65;89.07;96279.28;5030215;28;20185;-65
2021/04/13 00:52:28;;;;;;;14.05;10.73;;;;;;;3.66;88.34;96280.88;5028195;28;20100;-64
2021/04/13 00:54:58;;;;;;;10.57;9.57;;;;;;;3.71;88.82;96296.78;5043067;28;20068;-64
2021/04/13 00:57:32;;;;;;;10.75;9.73;;;;;;;3.63;88.45;96297.13;5028236;28;20041;-65
2021/04/13 00:59:59;;;;;;;13.85;10.98;;;;;;;3.92;88.65;96319.03;5028011;28;20037;-65
2021/04/13 01:02:27;;;;;;;11.73;10.13;;;;;;;3.74;88.40;96304.22;5028048;28;20380;-64
2021/04/13 01:04:57;;;;;;;12.50;9.70;;;;;;;3.85;88.80;96310.47;5027272;28;20129;-64
2021/04/13 01:07:33;;;;;;;14.55;11.27;;;;;;;3.89;88.66;96316.88;5027462;28;20045;-65
2021/04/13 01:10:15;;;;;;;11.57;10.50;;;;;;;3.65;89.00;96279.28;5027528;28;20046;-65
2021/04/13 01:13:18;;;;;;;14.25;11.15;;;;;;;3.96;89.03;96325.44;5027751;28;20078;-64
2021/04/13 01:15:45;;;;;;;;;;;;;;;3.95;88.99;96328.31;5026482;28;20749;-62
2021/04/13 01:18:38;;;;;;;12.52;11.25;;;;;;;3.41;88.94;96239.06;5026571;28;19921;-65
2021/04/13 01:21:26;;;;;;;12.40;11.13;;;;;;;3.97;89.06;96327.03;5027841;28;20036;-65
2021/04/13 01:23:56;;;;;;;12.60;11.30;;;;;;;3.96;89.06;96328.06;5027894;28;20119;-64
2021/04/13 01:26:23;;;;;;;11.65;10.45;;;;;;;3.59;89.23;96272.31;5028308;28;20483;-64
2021/04/13 01:28:51;;;;;;;14.20;11.93;;;;;;;3.64;89.15;96275.84;5029807;28;20029;-65
2021/04/13 01:34:25;;;;;;;16.58;11.52;;;;;;;3.95;89.34;96323.06;5028113;28;20052;-65
2021/04/13 01:37:24;;;;;;;18.65;11.70;;;;;;;3.95;89.41;96323.84;5027763;28;20102;-64
2021/04/13 01:42:22;;;;;;;12.40;11.18;;;;;;;3.15;89.49;96208.78;5031579;28;20136;-64
2021/04/13 01:44:56;;;;;;;13.88;12.57;;;;;;;3.77;89.02;96308.19;5047014;28;20434;-64
2021/04/13 01:47:24;;;;;;;13.00;11.65;;;;;;;3.70;89.38;96282.03;5031548;28;20120;-64
2021/04/13 01:50:03;;;;;;;14.55;13.02;;;;;;;3.77;89.24;96292.41;5033458;28;20029;-64
2021/04/13 01:52:32;;;;;;;14.75;13.10;;;;;;;3.22;89.32;96203.41;5031514;28;20041;-64
2021/04/13 01:54:59;;;;;;;15.02;13.43;;;;;;;3.72;89.23;96297.56;5031498;28;20433;-65
2021/04/13 01:57:53;;;;;;;17.48;15.23;;;;;;;3.81;89.38;96309.34;5029797;28;20041;-63
2021/04/13 02:00:27;;;;;;;15.55;13.93;;;;;;;3.61;89.76;96297.34;5031138;28;20041;-64
2021/04/13 02:03:04;;;;;;;25.67;16.83;;;;;;;3.49;90.12;96269.47;5030857;28;20026;-63
2021/04/13 02:05:32;;;;;;;27.92;18.65;;;;;;;3.34;89.73;96248.91;5031388;28;20026;-63
2021/04/13 02:08:10;;;;;;;27.95;18.45;;;;;;;3.71;90.06;96299.41;5031893;28;20030;-64
2021/04/13 02:10:45;;;;;;;32.47;18.58;;;;;;;3.87;90.03;96318.94;5031491;28;20045;-64
2021/04/13 02:13:12;;;;;;;38.50;22.50;;;;;;;3.84;90.17;96309.69;5030858;28;20124;-63
2021/04/13 02:15:41;;;;;;;27.30;19.65;;;;;;;3.86;90.11;96314.72;5031037;28;20159;-63
2021/04/13 02:18:14;;;;;;;32.10;20.42;;;;;;;3.22;90.07;96235.75;5030921;28;20041;-63
2021/04/13 02:20:45;;;;;;;26.55;18.17;;;;;;;3.47;90.14;96264.44;5031076;28;20049;-64
2021/04/13 02:23:11;;;;;;;29.08;19.25;;;;;;;3.72;89.74;96308.09;5030835;28;20079;-64
2021/04/13 02:25:40;;;;;;;37.65;20.98;;;;;;;3.26;90.06;96236.09;5032958;28;20119;-63
2021/04/13 02:28:06;;;;;;;29.27;17.92;;;;;;;3.57;90.21;96290.94;5028792;28;20045;-63
2021/04/13 02:30:35;;;;;;;22.48;17.40;;;;;;;3.66;89.87;96301.94;5030894;28;20042;-63
2021/04/13 02:33:07;;;;;;;39.35;21.20;;;;;;;3.46;90.25;96277.81;5029050;28;20091;-63
2021/04/13 02:35:36;;;;;;;31.73;19.77;;;;;;;3.62;90.22;96314.72;5030289;28;20553;-64
2021/04/13 02:38:05;;;;;;;32.00;19.55;;;;;;;3.66;90.40;96312.44;5029249;28;20025;-63
2021/04/13 02:40:52;;;;;;;36.38;19.83;;;;;;;3.14;90.71;96225.59;5031147;28;20029;-63
2021/04/13 02:43:26;;;;;;;27.40;18.63;;;;;;;3.23;90.04;96274.19;5030051;28;20030;-64
2021/04/13 02:45:56;;;;;;;31.73;20.63;;;;;;;3.58;90.47;96292.56;5030761;28;20029;-64
2021/04/13 02:48:24;;;;;;;27.90;19.05;;;;;;;3.72;90.84;96302.81;5028636;28;20046;-63
2021/04/13 02:50:50;;;;;;;38.55;21.50;;;;;;;3.22;90.61;96229.69;5044541;28;20068;-63
2021/04/13 02:53:22;;;;;;;36.17;20.95;;;;;;;3.41;90.55;96254.84;5045556;28;20013;-64
2021/04/13 02:55:50;;;;;;;;;;;;;;;3.74;90.60;96298.94;5032923;28;20025;-62
2021/04/13 02:58:17;;;;;;;35.58;19.48;;;;;;;3.62;91.03;96282.38;5030198;28;19913;-64
2021/04/13 03:00:46;;;;;;;40.22;22.60;;;;;;;3.30;90.68;96238.03;5030298;28;20033;-63
2021/04/13 03:03:38;;;;;;;47.97;23.50;;;;;;;3.67;90.70;96285.09;5029898;28;20499;-63
2021/04/13 03:06:05;;;;;;;51.63;24.95;;;;;;;3.71;91.16;96298.59;5029118;28;20087;-65
2021/04/13 03:08:40;;;;;;;54.35;24.63;;;;;;;3.70;90.35;96299.63;5030027;28;20140;-64
2021/04/13 03:11:26;;;;;;;43.03;22.17;;;;;;;3.60;90.53;96294.97;5028923;28;20034;-64
2021/04/13 03:13:54;;;;;;;40.25;22.65;;;;;;;3.42;90.32;96259.06;5030393;28;20032;-64
2021/04/13 03:16:29;;;;;;;43.72;22.55;;;;;;;3.69;90.84;96300.69;5030199;28;20034;-63
2021/04/13 03:18:58;;;;;;;36.63;21.17;;;;;;;3.70;90.76;96292.53;5029902;28;20044;-64
2021/04/13 03:21:33;;;;;;;32.20;18.25;;;;;;;3.30;90.86;96247.75;5029637;28;20048;-62
2021/04/13 03:24:01;;;;;;;25.58;18.98;;;;;;;3.35;91.27;96272.34;5030190;28;20061;-65
2021/04/13 03:26:58;;;;;;;34.65;21.05;;;;;;;3.56;91.57;96299.88;5028543;28;20444;-62
2021/04/13 03:29:33;;;;;;;29.00;19.15;;;;;;;3.55;91.10;96298.28;5017459;28;20038;-62
2021/04/13 03:32:01;;;;;;;40.40;22.73;;;;;;;3.32;90.89;96264.09;5030542;28;20093;-64
2021/04/13 03:34:27;;;;;;;24.98;17.77;;;;;;;3.47;90.86;96295.19;5030903;28;20184;-63
2021/04/13 03:36:56;;;;;;;33.50;21.05;;;;;;;3.39;91.06;96280.56;5029477;28;20163;-63
2021/04/13 03:39:32;;;;;;;39.10;23.15;;;;;;;3.29;91.43;96251.44;5044840;28;20113;-63
2021/04/13 03:41:58;;;;;;;54.55;25.40;;;;;;;3.31;91.55;96244.91;5029026;28;20038;-65
2021/04/13 03:44:25;;;;;;;40.28;22.73;;;;;;;3.58;91.01;96291.75;5027966;28;20056;-64
2021/04/13 03:46:52;;;;;;;40.28;21.70;;;;;;;2.89;90.89;96189.03;5031243;28;20482;-64
2021/04/13 03:49:25;;;;;;;38.47;21.65;;;;;;;3.63;91.51;96297.13;5044126;28;20053;-64
2021/04/13 03:52:00;;;;;;;49.95;23.52;;;;;;;2.91;91.11;96176.47;5029145;28;20036;-65
2021/04/13 03:54:29;;;;;;;35.55;21.60;;;;;;;3.22;91.22;96224.44;5029113;28;20072;-63
2021/04/13 03:56:56;;;;;;;39.10;21.75;;;;;;;3.57;90.71;96290.94;5028929;28;20033;-65
2021/04/13 03:59:30;;;;;;;34.45;21.33;;;;;;;3.27;90.81;96229.81;5028982;28;20033;-64
2021/04/13 04:01:56;;;;;;;36.53;21.90;;;;;;;3.03;91.04;96208.03;5030731;28;20029;-65
2021/04/13 04:04:33;;;;;;;33.00;20.10;;;;;;;3.67;90.75;96294.84;5027801;28;20471;-64
2021/04/13 04:07:17;;;;;;;36.42;21.55;;;;;;;3.68;91.07;96301.69;5028967;28;20408;-64
2021/04/13 04:09:43;;;;;;;37.03;21.75;;;;;;;3.62;90.95;96313.94;5028645;28;20060;-64
2021/04/13 04:12:21;;;;;;;29.00;19.65;;;;;;;3.04;90.81;96205.16;5028512;28;20480;-64
2021/04/13 04:15:01;;;;;;;34.00;21.38;;;;;;;3.61;90.43;96294.72;5028741;28;20045;-63
2021/04/13 04:17:30;;;;;;;30.25;20.48;;;;;;;3.62;90.91;96296.31;5028593;28;20049;-63
2021/04/13 04:20:03;;;;;;;36.70;22.08;;;;;;;3.28;90.54;96257.72;5030710;28;20032;-62
2021/04/13 04:22:29;;;;;;;30.35;20.60;;;;;;;3.42;90.06;96276.69;5029099;28;20046;-63
2021/04/13 04:25:36;;;;;;;37.90;22.85;;;;;;;3.53;90.31;96278.47;5028544;28;20041;-63
2021/04/13 04:28:07;;;;;;;31.60;20.42;;;;;;;3.17;90.47;96219.88;5025725;28;20099;-65
2021/04/13 04:30:34;;;;;;;27.92;21.00;;;;;;;3.48;89.99;96294.16;5027238;28;20510;-64
2021/04/13 04:33:01;;;;;;;35.08;20.55;;;;;;;3.23;90.13;96262.88;5028174;28;20033;-63
2021/04/13 04:35:35;;;;;;;28.75;20.45;;;;;;;3.54;90.25;96299.31;5028498;28;20040;-64
2021/04/13 04:38:06;;;;;;;35.15;22.77;;;;;;;3.54;90.34;96301.94;5028056;28;20108;-64
2021/04/13 04:40:31;;;;;;;33.80;22.52;;;;;;;3.57;90.66;96306.72;5030413;28;20032;-64
2021/04/13 04:43:02;;;;;;;39.17;22.73;;;;;;;3.20;89.93;96258.06;5028320;28;20128;-64
2021/04/13 04:45:42;;;;;;;31.10;20.77;;;;;;;3.56;90.33;96310.41;5028146;28;20037;-64
2021/04/13 04:48:38;;;;;;;25.08;19.42;;;;;;;3.45;89.78;96311.22;5028062;28;20044;-64
2021/04/13 04:51:14;;;;;;;32.90;22.13;;;;;;;3.23;90.62;96266.31;5015179;28;20038;-64
2021/04/13 04:53:41;;;;;;;23.92;18.98;;;;;;;3.60;90.24;96316.00;5028202;28;20036;-64
2021/04/13 04:56:10;;;;;;;20.85;18.45;;;;;;;3.70;90.06;96318.84;5028163;28;20025;-63
2021/04/13 04:58:36;;;;;;;19.08;17.08;;;;;;;3.55;89.88;96293.03;5030238;28;20379;-64
2021/04/13 05:01:03;;;;;;;25.77;20.27;;;;;;;3.70;89.85;96318.84;5026906;28;20457;-63
2021/04/13 05:03:28;;;;;;;24.98;20.98;;;;;;;3.57;89.84;96298.84;5027929;28;20040;-62
2021/04/13 05:05:55;;;;;;;31.90;23.27;;;;;;;3.73;89.09;96336.00;5028198;28;20033;-64
2021/04/13 05:08:22;;;;;;;28.80;21.88;;;;;;;3.16;87.64;96288.47;5027764;28;20061;-68
2021/04/13 05:10:50;;;;;;;33.08;23.33;;;;;;;3.60;89.26;96318.63;5029362;28;20025;-64
2021/04/13 05:13:17;;;;;;;33.40;22.42;;;;;;;3.79;89.97;96327.22;5028136;28;20096;-66
2021/04/13 05:15:42;;;;;;;27.77;20.33;;;;;;;3.91;89.75;96330.59;5031632;28;20103;-63
2021/04/13 05:18:07;;;;;;;26.08;21.15;;;;;;;3.92;89.72;96308.50;5032445;28;20041;-65
2021/04/13 05:20:33;;;;;;;28.25;22.90;;;;;;;3.82;87.25;96350.41;5032317;28;20042;-65
2021/04/13 05:22:59;;;;;;;26.58;21.02;;;;;;;3.48;85.97;96337.06;5033974;28;20057;-69
2021/04/13 05:25:25;;;;;;;27.33;21.45;;;;;;;2.94;86.65;96235.66;5032846;28;20041;-62
2021/04/13 05:27:51;;;;;;;34.38;23.92;;;;;;;3.55;88.07;96318.53;5031710;28;20045;-61
2021/04/13 05:30:18;;;;;;;25.08;22.38;;;;;;;3.77;89.17;96300.31;5032057;28;20107;-62
2021/04/13 05:32:44;;;;;;;30.48;23.48;;;;;;;3.41;88.04;96257.47;5031894;28;20545;-63
2021/04/13 05:35:10;;;;;;;23.42;20.88;;;;;;;3.88;87.20;96315.25;5030496;28;20544;-63
2021/04/13 05:37:36;;;;;;;34.47;24.60;;;;;;;4.28;88.87;96348.72;5034498;23;20132;-73
2021/04/13 05:40:05;;;;;;;29.52;23.23;;;;;;;4.42;88.82;96332.41;4994219;28;20138;-71
2021/04/13 05:42:32;;;;;;;34.15;24.80;;;;;;;4.58;88.66;96332.66;4981106;28;20035;-78
2021/04/13 05:44:59;;;;;;;29.48;24.65;;;;;;;4.61;88.74;96322.47;4973168;28;20039;-72
2021/04/13 05:47:29;;;;;;;25.63;21.80;;;;;;;4.79;88.27;96323.28;4986626;28;20050;-70
2021/04/13 05:49:55;;;;;;;24.42;21.90;;;;;;;4.73;87.40;96343.47;4974736;28;20035;-70
2021/04/13 05:52:21;;;;;;;25.83;21.38;;;;;;;3.74;82.84;96319.22;4972962;28;20405;-69
2021/04/13 05:54:46;;;;;;;24.33;21.75;;;;;;;3.49;84.88;96328.16;4974117;28;20437;-69
2021/04/13 05:57:14;;;;;;;26.50;21.95;;;;;;;3.47;85.99;96353.88;4973743;28;20129;-69
2021/04/13 05:59:41;;;;;;;28.52;24.02;;;;;;;3.70;87.88;96331.22;4973851;28;20496;-68
2021/04/13 06:02:12;;;;;;;29.83;20.40;;;;;;;2.88;87.01;96339.06;4973499;28;20034;-69
2021/04/13 06:04:38;;;;;;;26.42;22.30;;;;;;;2.94;88.38;96317.13;4975695;28;20023;-69
2021/04/13 06:07:03;;;;;;;25.27;22.00;;;;;;;3.87;88.91;96355.78;4977802;28;20048;-70
2021/04/13 06:09:29;;;;;;;30.42;23.58;;;;;;;4.03;87.62;96357.69;4992989;28;20489;-70
2021/04/13 06:11:56;;;;;;;24.20;21.27;;;;;;;3.41;87.17;96352.16;4991695;28;20050;-70
2021/04/13 06:14:23;;;;;;;27.13;21.50;;;;;;;2.80;87.47;96348.06;4992937;28;20049;-70
2021/04/13 06:16:50;;;;;;;24.45;20.73;;;;;;;2.39;89.04;96325.22;4994650;28;20026;-71
2021/04/13 06:19:15;;;;;;;27.13;20.70;;;;;;;2.35;89.95;96361.59;4992416;28;20035;-70
2021/04/13 06:21:42;;;;;;;25.00;22.33;;;;;;;2.60;88.60;96359.66;4991989;28;20031;-75
2021/04/13 06:24:08;;;;;;;28.00;21.25;;;;;;;2.55;90.17;96353.47;4993145;28;20117;-74
2021/04/13 06:26:33;;;;;;;24.30;20.75;;;;;;;2.76;91.41;96360.03;4991707;28;20030;-74
2021/04/13 06:29:00;;;;;;;38.13;26.23;;;;;;;2.95;90.63;96356.31;4990429;28;20037;-74
2021/04/13 06:31:25;;;;;;;32.63;24.35;;;;;;;3.04;89.98;96359.44;5004015;28;20046;-76
2021/04/13 06:33:51;;;;;;;30.38;22.45;;;;;;;2.58;88.73;96366.16;4992818;28;20121;-69
2021/04/13 06:36:20;;;;;;;28.33;22.58;;;;;;;2.64;88.69;96365.28;4992827;28;20081;-72
2021/04/13 06:38:46;;;;;;;32.88;22.48;;;;;;;3.01;88.00;96363.31;4989025;28;20125;-72
2021/04/13 06:41:42;;;;;;;29.08;23.92;;;;;;;3.80;87.80;96363.00;4991106;28;20645;-70
2021/04/13 06:44:07;;;;;;;28.25;24.33;;;;;;;3.49;86.85;96362.34;4992439;28;20507;-70
2021/04/13 06:46:57;;;;;;;30.73;23.65;;;;;;;4.12;87.64;96366.03;4994466;28;20121;-69
2021/04/13 06:49:35;;;;;;;29.98;22.88;;;;;;;3.42;85.93;96366.09;4992167;28;20050;-71
2021/04/13 06:52:19;;;;;;;27.02;22.85;;;;;;;3.32;85.72;96366.66;4992049;28;20050;-74
2021/04/13 06:54:51;;;;;;;24.80;21.30;;;;;;;3.05;87.60;96358.41;4992023;28;20030;-71
2021/04/13 06:57:23;;;;;;;24.80;22.17;;;;;;;3.66;87.07;96357.19;4992388;28;20046;-70
2021/04/13 07:00:03;;;;;;;27.48;24.02;;;;;;;3.78;86.88;96354.53;5007387;28;20473;-75
2021/04/13 07:02:34;;;;;;;23.33;20.23;;;;;;;3.74;86.26;96354.22;4992205;28;20515;-73
2021/04/13 07:05:10;;;;;;;25.73;22.00;;;;;;;4.18;85.46;96365.91;5006975;28;20053;-77
2021/04/13 07:07:43;;;;;;;23.50;20.83;;;;;;;4.20;83.33;96355.16;4994939;28;20022;-83
2021/04/13 07:10:27;;;;;;;26.77;22.75;;;;;;;4.23;84.68;96370.47;4993500;28;20096;-83
2021/04/13 07:13:05;;;;;;;26.92;21.25;;;;;;;2.79;84.45;96349.91;4993395;28;20042;-83
2021/04/13 07:15:52;;;;;;;25.85;21.88;;;;;;;2.99;87.50;96367.19;5008006;28;20122;-80
2021/04/13 07:18:39;;;;;;;28.05;22.73;;;;;;;3.12;87.36;96364.34;5002700;28;20053;-74
2021/04/13 07:21:32;;;;;;;24.77;21.08;;;;;;;3.17;88.15;96366.31;5004310;28;20141;-82
2021/04/13 07:24:07;;;;;;;;;;;;;;;3.24;87.23;96367.00;4993201;28;20034;-71
2021/04/13 07:26:37;;;;;;;27.40;22.40;;;;;;;3.50;85.38;96329.75;5007442;28;19981;-82
2021/04/13 07:29:18;;;;;;;25.88;22.20;;;;;;;4.49;84.77;96358.59;5007291;28;20479;-72
2021/04/13 07:32:01;;;;;;;25.92;21.92;;;;;;;5.16;85.19;96344.72;4994435;28;20101;-77
2021/04/13 07:34:28;;;;;;;29.92;22.90;;;;;;;4.75;84.32;96359.06;4993373;28;20061;-74
2021/04/13 07:37:05;;;;;;;25.67;21.50;;;;;;;4.67;80.88;96361.03;5006175;28;20174;-73
2021/04/13 07:39:31;;;;;;;33.15;24.17;;;;;;;4.54;82.60;96369.22;4992270;28;20537;-73
2021/04/13 07:42:11;;;;;;;29.55;24.42;;;;;;;5.27;83.81;96372.06;4991040;28;20432;-78
2021/04/13 07:44:55;;;;;;;26.73;21.48;;;;;;;4.25;79.48;96346.53;4992468;28;20085;-85
2021/04/13 07:47:49;;;;;;;26.27;23.50;;;;;;;4.39;81.90;96368.94;4992944;28;20088;-87
2021/04/13 07:50:16;;;;;;;26.55;22.80;;;;;;;5.24;81.91;96364.63;4991970;28;20109;-76
2021/04/13 07:52:55;;;;;;;24.75;22.23;;;;;;;5.10;78.33;96374.69;4993256;28;20057;-74
2021/04/13 07:55:37;;;;;;;25.27;22.58;;;;;;;5.42;80.16;96374.94;4991949;28;20038;-84
2021/04/13 07:58:13;;;;;;;19.37;16.70;;;;;;;4.80;78.82;96372.31;4991717;28;20039;-77
2021/04/13 08:00:40;;;;;;;16.55;15.02;;;;;;;4.08;78.90;96386.75;4991452;28;20046;-77
2021/04/13 08:03:19;;;;;;;16.45;14.85;;;;;;;3.29;78.60;96381.09;4991277;28;20035;-77
2021/04/13 08:05:51;;;;;;;16.30;14.68;;;;;;;3.47;80.81;96364.38;4992079;28;20034;-76
2021/04/13 08:08:35;;;;;;;16.58;14.98;;;;;;;3.62;79.15;96371.81;4991992;28;20499;-79
2021/04/13 08:11:15;;;;;;;17.05;15.30;;;;;;;3.79;80.95;96378.00;4991726;28;20037;-79
2021/04/13 08:13:44;;;;;;;16.92;15.18;;;;;;;3.88;81.16;96375.81;4993432;28;20077;-78
2021/04/13 08:16:28;;;;;;;15.95;14.57;;;;;;;3.35;81.30;96382.78;4990996;28;20030;-78
2021/04/13 08:19:32;;;;;;;16.17;14.70;;;;;;;3.97;80.87;96381.53;4991131;28;20050;-76
2021/04/13 08:22:06;;;;;;;17.27;15.65;;;;;;;3.73;81.13;96381.53;4990163;28;20121;-73
2021/04/13 08:24:43;;;;;;;17.23;15.43;;;;;;;3.68;80.06;96385.88;4990772;28;20045;-74
2021/04/13 08:27:19;;;;;;;16.40;14.98;;;;;;;3.34;79.88;96386.47;4990429;28;20429;-74
2021/04/13 08:29:58;;;;;;;18.13;16.27;;;;;;;4.10;80.37;96392.63;4990583;28;20038;-73
2021/04/13 08:32:52;;;;;;;17.30;15.60;;;;;;;3.65;80.80;96387.16;4990414;28;20428;-74
2021/04/13 08:35:31;;;;;;;16.73;15.13;;;;;;;4.22;79.13;96378.63;4990458;28;20081;-74
2021/04/13 08:38:13;;;;;;;16.67;15.07;;;;;;;4.34;79.16;96382.81;4992224;28;20084;-73
2021/04/13 08:41:05;;;;;;;16.83;15.27;;;;;;;5.31;78.34;96378.44;4991027;28;20136;-73
2021/04/13 08:43:56;;;;;;;15.75;14.25;;;;;;;5.20;78.21;96359.81;4989433;28;20050;-73
2021/04/13 08:46:26;;;;;;;14.88;13.45;;;;;;;3.95;77.79;96389.66;4989219;28;20031;-75
2021/04/13 08:49:11;;;;;;;17.80;15.45;;;;;;;4.82;71.90;96388.72;5004462;28;20050;-74
2021/04/13 08:51:43;;;;;;;14.93;13.63;;;;;;;3.78;76.11;96388.75;4989851;28;20030;-74
2021/04/13 08:54:18;;;;;;;15.63;14.00;;;;;;;4.63;75.41;96396.81;4990492;28;20081;-73
2021/04/13 08:56:56;;;;;;;13.73;12.27;;;;;;;4.70;69.61;96397.47;4990012;28;20101;-75
2021/04/13 08:59:42;;;;;;;12.70;11.63;;;;;;;4.41;74.55;96393.22;4990296;28;20475;-74
2021/04/13 09:02:23;;;;;;;13.98;12.60;;;;;;;5.42;71.10;96390.75;4989973;28;20501;-73
2021/04/13 09:05:04;;;;;;;13.88;12.68;;;;;;;5.93;70.84;96384.41;4992282;28;20030;-73
2021/04/13 09:07:54;;;;;;;11.90;10.90;;;;;;;5.87;66.26;96395.13;4989944;28;20042;-73
2021/04/13 09:10:28;;;;;;;11.73;10.52;;;;;;;4.73;67.69;96404.09;4989820;28;20049;-72
2021/04/13 09:13:21;;;;;;;13.13;11.00;;;;;;;5.54;65.13;96403.91;4989823;28;20700;-74
2021/04/13 09:16:10;;;;;;;13.93;12.43;;;;;;;6.78;66.56;96398.94;5004945;28;20121;-75
2021/04/13 09:18:45;;;;;;;12.35;11.25;;;;;;;6.97;65.40;96396.75;4989743;28;20046;-73
2021/04/13 09:21:35;;;;;;;12.27;11.25;;;;;;;7.03;61.82;96392.28;4989517;28;20623;-72
2021/04/13 09:24:10;;;;;;;12.35;11.15;;;;;;;6.65;68.15;96404.59;4990021;28;20062;-73
2021/04/13 09:26:43;;;;;;;12.18;9.30;;;;;;;6.64;62.70;96405.63;4989939;28;20042;-73
2021/04/13 09:29:31;;;;;;;9.73;8.90;;;;;;;6.13;64.15;96402.38;5005005;28;20023;-72
2021/04/13 09:31:58;;;;;;;10.57;9.48;;;;;;;5.78;61.90;96407.13;4991631;28;20026;-72
2021/04/13 09:34:35;;;;;;;10.73;9.45;;;;;;;5.48;62.15;96403.81;4990043;28;20049;-72
2021/04/13 09:37:07;;;;;;;11.57;10.45;;;;;;;5.02;65.73;96399.63;4989517;28;20054;-73
2021/04/13 09:39:54;;;;;;;12.02;10.77;;;;;;;5.53;66.82;96397.81;4989838;28;20054;-73
2021/04/13 09:42:31;;;;;;;10.77;9.90;;;;;;;5.34;64.15;96396.44;4989455;28;20108;-75
2021/04/13 09:45:18;;;;;;;10.30;9.40;;;;;;;5.82;66.05;96382.66;4990040;28;20046;-73
2021/04/13 09:48:11;;;;;;;10.70;9.63;;;;;;;5.17;61.93;96381.41;4989739;28;20129;-73
2021/04/13 09:51:14;;;;;;;10.05;9.23;;;;;;;5.61;62.09;96384.19;4989479;28;20515;-73
2021/04/13 09:54:07;;;;;;;;;;;;;;;5.56;60.50;96389.41;5005020;28;20069;-72
2021/04/13 09:56:52;;;;;;;9.95;8.95;;;;;;;6.21;62.77;96375.53;4989954;28;19996;-72
2021/04/13 09:59:40;;;;;;;9.55;8.60;;;;;;;6.25;60.28;96384.59;4989696;28;20041;-74
2021/04/13 10:02:26;;;;;;;8.50;7.57;;;;;;;5.83;60.13;96381.59;4992551;28;20030;-73
2021/04/13 10:05:01;;;;;;;8.20;7.50;;;;;;;5.92;58.54;96379.38;4995766;28;20092;-75
2021/04/13 10:07:35;;;;;;;8.65;7.28;;;;;;;5.29;60.73;96370.00;4993383;28;20042;-73
2021/04/13 10:10:04;;;;;;;8.05;7.45;;;;;;;6.27;62.83;96372.97;5007958;28;20129;-72
2021/04/13 10:12:48;;;;;;;9.52;6.90;;;;;;;6.33;56.36;96374.63;4992778;28;20122;-74
2021/04/13 10:15:20;;;;;;;8.38;7.20;;;;;;;5.87;58.54;96372.16;4993195;28;20043;-73
2021/04/13 10:18:27;;;;;;;8.30;7.60;;;;;;;5.76;59.39;96372.25;5007749;28;20168;-71
2021/04/13 10:21:34;;;;;;;7.80;7.10;;;;;;;4.89;59.25;96368.28;4984288;28;20046;-73
2021/04/13 10:24:05;;;;;;;8.40;7.70;;;;;;;5.55;61.38;96376.47;4976295;28;20050;-72
2021/04/13 10:26:50;;;;;;;9.25;8.45;;;;;;;4.62;64.03;96368.84;4993012;28;20042;-72
2021/04/13 10:29:34;;;;;;;7.53;6.82;;;;;;;4.74;62.64;96371.44;4992823;28;20033;-72
2021/04/13 10:32:05;;;;;;;8.40;7.63;;;;;;;4.55;61.29;96370.03;5008022;28;20056;-68
2021/04/13 10:34:33;;;;;;;8.88;8.13;;;;;;;5.47;61.48;96370.53;4994779;28;20050;-72
2021/04/13 10:37:36;;;;;;;7.85;7.15;;;;;;;4.74;62.92;96368.81;4992524;28;20046;-73
2021/04/13 10:40:08;;;;;;;8.15;7.40;;;;;;;6.56;57.52;96358.50;4992303;28;20587;-72
2021/04/13 10:42:36;;;;;;;7.57;6.88;;;;;;;6.17;56.81;96349.84;4992319;28;20097;-74
2021/04/13 10:45:31;;;;;;;8.07;7.38;;;;;;;7.07;55.76;96352.91;4992284;28;20080;-76
2021/04/13 10:48:20;;;;;;;8.82;7.40;;;;;;;7.04;53.39;96343.63;4992310;28;20042;-73
2021/04/13 10:51:07;;;;;;;7.35;6.72;;;;;;;6.56;57.04;96349.78;4991639;28;20042;-70
2021/04/13 10:54:17;;;;;;;6.70;6.15;;;;;;;7.49;54.96;96350.34;4992454;28;20038;-71
2021/04/13 10:56:42;;;;;;;7.88;6.60;;;;;;;7.46;51.90;96345.53;4959053;28;20060;-69
2021/04/13 10:59:44;;;;;;;5.90;4.90;;;;;;;5.84;51.82;96348.91;4992383;28;20588;-69
2021/04/13 11:02:48;;;;;;;5.90;5.50;;;;;;;6.28;54.41;96350.78;5006881;28;20176;-68
2021/04/13 11:05:31;;;;;;;5.22;4.78;;;;;;;5.74;56.57;96357.47;4992199;28;20035;-69
2021/04/13 11:08:17;;;;;;;4.97;4.57;;;;;;;5.14;59.54;96349.44;4993886;28;20026;-68
2021/04/13 11:11:11;;;;;;;4.57;4.22;;;;;;;5.58;53.88;96350.38;4992322;28;20105;-67
2021/04/13 11:13:48;;;;;;;4.90;4.50;;;;;;;5.79;55.75;96340.13;4991724;28;20057;-69
2021/04/13 11:16:43;;;;;;;5.57;5.18;;;;;;;5.52;53.90;96342.63;4991966;28;20041;-69
2021/04/13 11:19:33;;;;;;;6.63;6.03;;;;;;;6.43;54.66;96345.66;4991846;28;20053;-70
2021/04/13 11:22:17;;;;;;;6.78;6.10;;;;;;;8.04;56.84;96335.81;4991266;28;20153;-71
2021/04/13 11:25:01;;;;;;;6.32;5.63;;;;;;;7.97;50.33;96330.75;4991747;28;20096;-69
2021/04/13 11:28:04;;;;;;;5.85;5.35;;;;;;;8.82;50.48;96333.97;4991599;28;20042;-70
2021/04/13 11:31:07;;;;;;;5.80;5.40;;;;;;;8.84;52.93;96323.88;4991737;28;20492;-70
2021/04/13 11:33:59;;;;;;;8.38;5.63;;;;;;;8.95;53.61;96311.41;4991599;28;20594;-69
2021/04/13 11:36:43;;;;;;;5.90;5.40;;;;;;;9.48;44.63;96321.78;4991492;28;20042;-69
2021/04/13 11:39:33;;;;;;;5.15;4.75;;;;;;;7.84;47.11;96310.03;5025150;23;20042;-68
2021/04/13 11:42:29;;;;;;;5.57;5.07;;;;;;;9.14;52.72;96306.41;4996575;28;20035;-68
2021/04/13 11:45:01;;;;;;;5.45;4.80;;;;;;;7.65;46.40;96304.34;4991290;28;20022;-68
2021/04/13 11:47:26;;;;;;;;;;;;;;;8.37;44.74;96307.34;4991625;28;20046;-68
2021/04/13 11:50:19;;;;;;;7.60;5.43;;;;;;;7.89;46.37;96304.75;4992814;28;19914;-68
2021/04/13 11:52:51;;;;;;;9.00;5.20;;;;;;;7.66;46.08;96300.66;4991059;28;20038;-69
2021/04/13 11:55:32;;;;;;;5.28;4.82;;;;;;;8.18;43.80;96305.13;4991501;28;20457;-69
2021/04/13 11:58:23;;;;;;;5.07;4.55;;;;;;;8.82;44.20;96304.78;4990913;28;20043;-68
2021/04/13 12:01:08;;;;;;;4.72;4.28;;;;;;;8.57;45.03;96307.41;4991070;28;20077;-68
2021/04/13 12:03:38;;;;;;;5.43;4.93;;;;;;;8.18;47.43;96310.44;4991016;28;20041;-68
2021/04/13 12:06:10;;;;;;;4.22;3.83;;;;;;;6.56;49.98;96313.56;5006109;28;20740;-67
2021/04/13 12:08:35;;;;;;;5.18;3.83;;;;;;;5.11;53.15;96321.69;4990694;28;20050;-68
2021/04/13 12:11:05;;;;;;;3.38;3.15;;;;;;;4.72;53.94;96310.25;4990776;28;20073;-67
2021/04/13 12:13:50;;;;;;;3.67;3.15;;;;;;;4.14;58.29;96321.84;4992758;28;20022;-68
2021/04/13 12:16:21;;;;;;;4.80;3.13;;;;;;;3.84;58.58;96308.88;4990774;28;20043;-68